createdAt,value
2018-12-04T00:00:49.939Z,48.96
2018-12-04T00:01:49.934Z,49.82
2018-12-04T00:02:49.928Z,50.10
2018-12-04T00:03:49.923Z,50.29
2018-12-04T00:04:49.916Z,50.10
2018-12-04T00:05:49.912Z,50.20
2018-12-04T00:06:49.906Z,49.82
2018-12-04T00:07:49.900Z,50.10
2018-12-04T00:08:49.900Z,51.15
2018-12-04T00:09:49.890Z,51.53
2018-12-04T00:10:49.882Z,51.53
2018-12-04T00:11:49.876Z,52.20
2018-12-04T00:12:49.872Z,51.53
2018-12-04T00:13:49.867Z,51.62
2018-12-04T00:14:49.860Z,50.96
2018-12-04T00:15:49.856Z,50.58
2018-12-04T00:16:50.000Z,50.96
2018-12-04T00:17:49.843Z,50.58
2018-12-04T00:18:49.837Z,50.48
2018-12-04T00:19:49.833Z,50.48
2018-12-04T00:20:49.826Z,50.20
2018-12-04T00:21:49.824Z,50.01
2018-12-04T00:22:49.815Z,50.20
2018-12-04T00:23:49.810Z,49.25
2018-12-04T00:24:49.803Z,48.87
2018-12-04T00:25:49.798Z,48.87
2018-12-04T00:26:49.791Z,48.68
2018-12-04T00:27:49.786Z,48.49
2018-12-04T00:28:49.781Z,48.77
2018-12-04T00:29:49.774Z,48.58
2018-12-04T00:30:49.769Z,48.80
2018-12-04T00:31:49.763Z,48.77
2018-12-04T00:32:49.755Z,48.96
2018-12-04T00:33:49.756Z,48.39
2018-12-04T00:34:49.744Z,48.21
2018-12-04T00:35:49.738Z,48.49
2018-12-04T00:36:49.734Z,48.30
2018-12-04T00:37:49.727Z,47.34
2018-12-04T00:38:49.722Z,46.97
2018-12-04T00:39:49.716Z,47.34
2018-12-04T00:40:49.711Z,47.16
2018-12-04T00:41:49.703Z,47.06
2018-12-04T00:42:49.699Z,46.68
2018-12-04T00:43:49.692Z,46.97
2018-12-04T00:44:49.686Z,46.59
2018-12-04T00:45:49.680Z,47.06
2018-12-04T00:46:49.674Z,46.59
2018-12-04T00:47:49.716Z,47.16
2018-12-04T00:48:49.662Z,46.97
2018-12-04T00:49:49.656Z,46.88
2018-12-04T00:50:49.649Z,46.97
2018-12-04T00:51:49.645Z,46.88
2018-12-04T00:52:49.639Z,47.44
2018-12-04T00:53:49.633Z,47.34
2018-12-04T00:54:49.627Z,47.34
2018-12-04T00:55:49.621Z,47.06
2018-12-04T00:56:49.617Z,47.25
2018-12-04T00:57:49.610Z,46.97
2018-12-04T00:58:49.602Z,46.78
2018-12-04T00:59:49.598Z,46.97
2018-12-04T01:00:49.592Z,46.11
2018-12-04T01:01:49.587Z,46.78
2018-12-04T01:02:49.582Z,46.78
2018-12-04T01:03:49.574Z,46.59
2018-12-04T01:04:49.569Z,46.20
2018-12-04T01:05:49.564Z,46.01
2018-12-04T01:06:49.556Z,45.64
2018-12-04T01:07:49.550Z,45.26
2018-12-04T01:08:49.588Z,44.87
2018-12-04T01:09:49.541Z,44.49
2018-12-04T01:10:49.532Z,44.31
2018-12-04T01:11:49.527Z,44.21
2018-12-04T01:12:49.523Z,43.83
2018-12-04T01:13:49.514Z,43.93
2018-12-04T01:14:49.507Z,43.07
2018-12-04T01:15:49.503Z,43.73
2018-12-04T01:16:49.498Z,43.73
2018-12-04T01:17:49.492Z,43.73
2018-12-04T01:18:49.484Z,43.16
2018-12-04T01:19:49.478Z,43.07
2018-12-04T01:20:49.472Z,42.97
2018-12-04T01:21:49.472Z,42.69
2018-12-04T01:22:49.460Z,42.79
2018-12-04T01:23:49.453Z,42.69
2018-12-04T01:24:49.447Z,42.31
2018-12-04T01:25:49.442Z,42.40
2018-12-04T01:26:49.436Z,42.31
2018-12-04T01:27:49.429Z,42.31
2018-12-04T01:28:49.424Z,42.50
2018-12-04T01:29:49.417Z,42.40
2018-12-04T01:30:49.411Z,42.12
2018-12-04T01:31:49.404Z,42.40
2018-12-04T01:32:49.399Z,42.40
2018-12-04T01:33:49.393Z,42.50
2018-12-04T01:34:49.385Z,42.02
2018-12-04T01:35:49.379Z,42.21
2018-12-04T01:36:49.945Z,41.93
2018-12-04T01:37:49.369Z,41.46
2018-12-04T01:38:49.364Z,41.17
2018-12-04T01:39:49.357Z,41.17
2018-12-04T01:40:49.350Z,40.69
2018-12-04T01:41:49.344Z,41.46
2018-12-04T01:42:49.337Z,41.17
2018-12-04T01:43:49.339Z,41.17
2018-12-04T01:44:49.327Z,41.26
2018-12-04T01:45:49.320Z,40.79
2018-12-04T01:46:49.312Z,40.79
2018-12-04T01:47:49.307Z,41.07
2018-12-04T01:48:49.302Z,40.69
2018-12-04T01:49:49.296Z,40.59
2018-12-04T01:50:49.289Z,40.50
2018-12-04T01:51:49.284Z,40.41
2018-12-04T01:52:49.277Z,40.31
2018-12-04T01:53:49.272Z,39.93
2018-12-04T01:54:49.266Z,40.69
2018-12-04T01:55:49.258Z,40.41
2018-12-04T01:56:49.253Z,40.12
2018-12-04T01:57:49.247Z,40.12
2018-12-04T01:58:49.245Z,40.50
2018-12-04T01:59:49.234Z,40.41
2018-12-04T02:00:49.228Z,40.41
2018-12-04T02:01:49.231Z,40.41
2018-12-04T02:02:49.218Z,40.31
2018-12-04T02:03:49.213Z,40.59
2018-12-04T02:04:49.204Z,40.69
2018-12-04T02:05:49.199Z,40.79
2018-12-04T02:06:49.195Z,40.88
2018-12-04T02:07:49.189Z,40.88
2018-12-04T02:08:49.180Z,40.88
2018-12-04T02:09:49.176Z,41.26
2018-12-04T02:10:49.172Z,42.50
2018-12-04T02:11:49.163Z,42.40
2018-12-04T02:12:49.160Z,42.31
2018-12-04T02:13:49.151Z,42.31
2018-12-04T02:14:49.143Z,42.69
2018-12-04T02:15:49.137Z,43.16
2018-12-04T02:16:49.131Z,43.64
2018-12-04T02:17:49.126Z,43.93
2018-12-04T02:18:49.119Z,43.93
2018-12-04T02:19:49.113Z,43.83
2018-12-04T02:20:49.107Z,43.64
2018-12-04T02:21:49.103Z,44.21
2018-12-04T02:22:49.095Z,44.59
2018-12-04T02:23:49.089Z,44.31
2018-12-04T02:24:49.081Z,44.78
2018-12-04T02:25:49.078Z,44.78
2018-12-04T02:26:49.069Z,45.64
2018-12-04T02:27:49.063Z,45.35
2018-12-04T02:28:49.057Z,45.73
2018-12-04T02:29:49.052Z,45.54
2018-12-04T02:30:49.045Z,45.35
2018-12-04T02:31:49.043Z,45.54
2018-12-04T02:32:49.036Z,45.54
2018-12-04T02:33:49.029Z,45.16
2018-12-04T02:34:49.022Z,45.35
2018-12-04T02:35:49.015Z,45.73
2018-12-04T02:36:49.012Z,45.45
2018-12-04T02:37:49.005Z,44.87
2018-12-04T02:38:49.000Z,45.54
2018-12-04T02:39:48.993Z,45.45
2018-12-04T02:40:48.986Z,45.54
2018-12-04T02:41:48.983Z,45.16
2018-12-04T02:42:48.975Z,44.87
2018-12-04T02:43:48.968Z,44.68
2018-12-04T02:44:48.964Z,44.87
2018-12-04T02:45:48.958Z,44.59
2018-12-04T02:46:48.950Z,44.31
2018-12-04T02:47:48.944Z,45.54
2018-12-04T02:48:48.939Z,45.45
2018-12-04T02:49:48.933Z,44.87
2018-12-04T02:50:48.927Z,44.68
2018-12-04T02:51:48.920Z,44.59
2018-12-04T02:52:48.917Z,44.87
2018-12-04T02:53:48.908Z,44.78
2018-12-04T02:54:49.007Z,44.78
2018-12-04T02:55:48.899Z,44.59
2018-12-04T02:56:48.891Z,44.31
2018-12-04T02:57:48.887Z,44.49
2018-12-04T02:58:48.878Z,44.40
2018-12-04T02:59:48.873Z,44.87
2018-12-04T03:00:48.867Z,45.35
2018-12-04T03:01:48.863Z,45.92
2018-12-04T03:02:48.853Z,46.30
2018-12-04T03:03:48.849Z,46.59
2018-12-04T03:04:48.847Z,46.20
2018-12-04T03:05:48.836Z,46.11
2018-12-04T03:06:48.843Z,46.49
2018-12-04T03:07:48.825Z,46.68
2018-12-04T03:08:48.819Z,46.68
2018-12-04T03:09:48.812Z,46.78
2018-12-04T03:10:48.806Z,46.78
2018-12-04T03:11:48.801Z,46.68
2018-12-04T03:12:48.797Z,46.30
2018-12-04T03:13:48.790Z,46.75
2018-12-04T03:14:48.783Z,46.56
2018-12-04T03:15:48.780Z,47.04
2018-12-04T03:16:48.771Z,47.25
2018-12-04T03:17:48.766Z,47.13
2018-12-04T03:18:48.759Z,47.42
2018-12-04T03:19:48.753Z,47.33
2018-12-04T03:20:48.749Z,47.25
2018-12-04T03:21:48.742Z,47.99
2018-12-04T03:22:48.736Z,48.30
2018-12-04T03:23:48.731Z,48.01
2018-12-04T03:24:48.724Z,48.21
2018-12-04T03:25:48.719Z,48.77
2018-12-04T03:26:48.715Z,48.49
2018-12-04T03:27:48.706Z,48.08
2018-12-04T03:28:48.699Z,48.18
2018-12-04T03:29:48.701Z,48.66
2018-12-04T03:30:48.688Z,48.58
2018-12-04T03:31:48.683Z,48.68
2018-12-04T03:32:48.676Z,48.66
2018-12-04T03:33:48.670Z,48.58
2018-12-04T03:34:48.663Z,49.51
2018-12-04T03:35:48.658Z,49.63
2018-12-04T03:36:48.651Z,49.70
2018-12-04T03:37:48.646Z,49.79
2018-12-04T03:38:48.638Z,50.27
2018-12-04T03:39:48.638Z,50.29
2018-12-04T03:40:48.627Z,49.98
2018-12-04T03:41:48.620Z,50.10
2018-12-04T03:42:48.617Z,50.48
2018-12-04T03:43:48.611Z,50.56
2018-12-04T03:44:48.604Z,50.56
2018-12-04T03:45:48.597Z,50.65
2018-12-04T03:46:48.590Z,50.56
2018-12-04T03:47:48.585Z,50.74
2018-12-04T03:48:48.577Z,49.60
2018-12-04T03:49:48.572Z,50.37
2018-12-04T03:50:48.567Z,50.27
2018-12-04T03:51:48.567Z,49.60
2018-12-04T03:52:48.556Z,49.60
2018-12-04T03:53:48.553Z,49.22
2018-12-04T03:54:48.539Z,49.32
2018-12-04T03:55:48.535Z,48.85
2018-12-04T03:56:48.529Z,48.66
2018-12-04T03:57:48.522Z,47.71
2018-12-04T03:58:48.514Z,47.89
2018-12-04T03:59:48.513Z,47.80
2018-12-04T04:00:48.504Z,47.80
2018-12-04T04:01:48.498Z,47.52
2018-12-04T04:02:48.490Z,47.13
2018-12-04T04:03:48.485Z,46.64
2018-12-04T04:04:48.477Z,46.47
2018-12-04T04:05:48.474Z,47.13
2018-12-04T04:06:48.464Z,47.13
2018-12-04T04:07:48.459Z,46.47
2018-12-04T04:08:48.452Z,46.64
2018-12-04T04:09:48.447Z,46.16
2018-12-04T04:10:48.439Z,46.54
2018-12-04T04:11:48.431Z,46.16
2018-12-04T04:12:48.427Z,45.97
2018-12-04T04:13:48.420Z,45.78
2018-12-04T04:14:48.413Z,45.40
2018-12-04T04:15:48.407Z,45.50
2018-12-04T04:16:48.400Z,45.02
2018-12-04T04:17:48.395Z,44.54
2018-12-04T04:18:48.386Z,44.45
2018-12-04T04:19:48.384Z,43.98
2018-12-04T04:20:48.724Z,43.98
2018-12-04T04:21:48.371Z,43.79
2018-12-04T04:22:48.361Z,43.69
2018-12-04T04:23:48.355Z,43.21
2018-12-04T04:24:48.350Z,42.36
2018-12-04T04:25:48.342Z,42.17
2018-12-04T04:26:48.334Z,42.08
2018-12-04T04:27:48.329Z,42.36
2018-12-04T04:28:48.323Z,42.36
2018-12-04T04:29:48.317Z,42.27
2018-12-04T04:30:48.308Z,41.98
2018-12-04T04:31:48.303Z,42.17
2018-12-04T04:32:48.296Z,41.98
2018-12-04T04:33:48.291Z,41.69
2018-12-04T04:34:48.283Z,41.98
2018-12-04T04:35:48.275Z,41.69
2018-12-04T04:36:48.270Z,41.89
2018-12-04T04:37:48.265Z,41.96
2018-12-04T04:38:48.259Z,41.77
2018-12-04T04:39:48.250Z,41.89
2018-12-04T04:40:48.243Z,41.69
2018-12-04T04:41:48.237Z,41.77
2018-12-04T04:42:48.231Z,42.17
2018-12-04T04:43:48.223Z,42.24
2018-12-04T04:44:48.217Z,42.55
2018-12-04T04:45:48.211Z,42.72
2018-12-04T04:46:48.205Z,42.55
2018-12-04T04:47:48.196Z,42.72
2018-12-04T04:48:48.192Z,42.34
2018-12-04T04:49:48.190Z,42.24
2018-12-04T04:50:48.179Z,42.15
2018-12-04T04:51:48.170Z,42.05
2018-12-04T04:52:48.165Z,41.86
2018-12-04T04:53:48.157Z,41.67
2018-12-04T04:54:48.150Z,41.77
2018-12-04T04:55:48.142Z,41.77
2018-12-04T04:56:48.135Z,41.86
2018-12-04T04:57:48.129Z,41.86
2018-12-04T04:58:48.124Z,41.77
2018-12-04T04:59:48.116Z,41.86
2018-12-04T05:00:48.109Z,41.49
2018-12-04T05:01:48.103Z,41.30
2018-12-04T05:02:48.095Z,41.01
2018-12-04T05:03:48.091Z,41.11
2018-12-04T05:04:48.080Z,41.11
2018-12-04T05:05:48.075Z,41.49
2018-12-04T05:06:48.070Z,41.11
2018-12-04T05:07:48.061Z,41.39
2018-12-04T05:08:48.054Z,41.39
2018-12-04T05:09:48.050Z,41.86
2018-12-04T05:10:48.039Z,42.15
2018-12-04T05:11:48.034Z,42.15
2018-12-04T05:12:48.027Z,42.34
2018-12-04T05:13:48.021Z,42.05
2018-12-04T05:14:48.014Z,42.05
2018-12-04T05:15:48.008Z,41.86
2018-12-04T05:16:47.999Z,41.30
2018-12-04T05:17:47.994Z,41.01
2018-12-04T05:18:47.986Z,41.49
2018-12-04T05:19:47.979Z,41.30
2018-12-04T05:20:47.971Z,41.39
2018-12-04T05:21:47.965Z,41.49
2018-12-04T05:22:47.959Z,40.92
2018-12-04T05:23:47.952Z,41.11
2018-12-04T05:24:47.943Z,41.30
2018-12-04T05:25:47.940Z,41.11
2018-12-04T05:26:47.930Z,41.11
2018-12-04T05:27:47.923Z,41.01
2018-12-04T05:28:47.916Z,41.01
2018-12-04T05:29:47.909Z,41.30
2018-12-04T05:30:47.902Z,41.20
2018-12-04T05:31:47.895Z,41.30
2018-12-04T05:32:47.888Z,41.37
2018-12-04T05:33:47.883Z,40.99
2018-12-04T05:34:47.874Z,40.52
2018-12-04T05:35:47.867Z,41.37
2018-12-04T05:36:47.861Z,41.08
2018-12-04T05:37:47.853Z,40.99
2018-12-04T05:38:47.845Z,41.37
2018-12-04T05:39:47.839Z,41.27
2018-12-04T05:40:47.832Z,41.27
2018-12-04T05:41:47.825Z,40.99
2018-12-04T05:42:47.817Z,40.42
2018-12-04T05:43:47.811Z,39.95
2018-12-04T05:44:47.805Z,40.04
2018-12-04T05:45:47.797Z,40.14
2018-12-04T05:46:47.789Z,40.04
2018-12-04T05:47:47.785Z,39.76
2018-12-04T05:48:47.775Z,39.66
2018-12-04T05:49:47.768Z,40.23
2018-12-04T05:50:47.761Z,40.14
2018-12-04T05:51:47.755Z,40.23
2018-12-04T05:52:47.747Z,40.33
2018-12-04T05:53:47.741Z,40.70
2018-12-04T05:54:47.732Z,40.61
2018-12-04T05:55:47.726Z,40.61
2018-12-04T05:56:47.721Z,40.61
2018-12-04T05:57:47.714Z,40.14
2018-12-04T05:58:47.705Z,40.23
2018-12-04T05:59:47.699Z,40.14
2018-12-04T06:00:47.690Z,40.14
2018-12-04T06:01:47.685Z,40.14
2018-12-04T06:02:47.676Z,39.95
2018-12-04T06:03:47.668Z,40.14
2018-12-04T06:04:47.663Z,40.23
2018-12-04T06:05:47.655Z,40.14
2018-12-04T06:06:47.648Z,39.76
2018-12-04T06:07:47.640Z,39.95
2018-12-04T06:08:47.636Z,39.66
2018-12-04T06:09:47.627Z,39.37
2018-12-04T06:10:48.762Z,39.37
2018-12-04T06:11:47.613Z,38.90
2018-12-04T06:12:47.606Z,39.00
2018-12-04T06:13:47.600Z,39.00
2018-12-04T06:14:47.591Z,38.43
2018-12-04T06:15:47.583Z,38.24
2018-12-04T06:16:47.577Z,38.05
2018-12-04T06:17:47.574Z,37.76
2018-12-04T06:18:47.562Z,37.67
2018-12-04T06:19:47.557Z,37.38
2018-12-04T06:20:47.553Z,37.19
2018-12-04T06:21:47.541Z,37.57
2018-12-04T06:22:47.533Z,37.76
2018-12-04T06:23:47.527Z,38.05
2018-12-04T06:24:47.523Z,38.24
2018-12-04T06:25:47.512Z,38.24
2018-12-04T06:26:47.509Z,38.53
2018-12-04T06:27:47.497Z,38.71
2018-12-04T06:28:47.493Z,38.53
2018-12-04T06:29:47.483Z,38.53
2018-12-04T06:30:47.475Z,38.53
2018-12-04T06:31:47.470Z,38.81
2018-12-04T06:32:47.462Z,38.62
2018-12-04T06:33:47.455Z,38.62
2018-12-04T06:34:47.452Z,39.09
2018-12-04T06:35:47.443Z,39.47
2018-12-04T06:36:47.433Z,39.76
2018-12-04T06:37:47.426Z,40.42
2018-12-04T06:38:47.418Z,40.80
2018-12-04T06:39:47.416Z,40.80
2018-12-04T06:40:47.404Z,40.61
2018-12-04T06:41:47.400Z,40.70
2018-12-04T06:42:47.391Z,40.33
2018-12-04T06:43:47.383Z,39.95
2018-12-04T06:44:47.376Z,39.47
2018-12-04T06:45:47.370Z,39.85
2018-12-04T06:46:47.362Z,39.57
2018-12-04T06:47:47.359Z,39.95
2018-12-04T06:48:47.348Z,39.66
2018-12-04T06:49:47.341Z,40.33
2018-12-04T06:50:47.333Z,40.70
2018-12-04T06:51:47.326Z,40.33
2018-12-04T06:52:47.323Z,40.33
2018-12-04T06:53:47.313Z,39.95
2018-12-04T06:54:47.307Z,40.14
2018-12-04T06:55:47.298Z,40.04
2018-12-04T06:56:47.290Z,40.14
2018-12-04T06:57:47.285Z,40.14
2018-12-04T06:58:47.276Z,39.37
2018-12-04T06:59:47.268Z,39.37
2018-12-04T07:00:47.268Z,39.76
2018-12-04T07:01:47.258Z,39.76
2018-12-04T07:02:47.246Z,40.23
2018-12-04T07:03:47.239Z,40.23
2018-12-04T07:04:47.232Z,40.52
2018-12-04T07:05:47.225Z,40.42
2018-12-04T07:06:47.219Z,40.04
2018-12-04T07:07:47.210Z,39.66
2018-12-04T07:08:47.206Z,39.66
2018-12-04T07:09:47.195Z,39.57
2018-12-04T07:10:47.187Z,37.76
2018-12-04T07:11:47.180Z,38.14
2018-12-04T07:12:47.174Z,36.91
2018-12-04T07:13:47.167Z,38.43
2018-12-04T07:14:47.158Z,39.18
2018-12-04T07:15:47.151Z,39.85
2018-12-04T07:16:47.144Z,39.47
2018-12-04T07:17:47.138Z,38.24
2018-12-04T07:18:47.130Z,38.81
2018-12-04T07:19:47.123Z,39.76
2018-12-04T07:20:47.116Z,40.23
2018-12-04T07:21:47.109Z,40.33
2018-12-04T07:22:47.100Z,40.80
2018-12-04T07:23:47.094Z,40.52
2018-12-04T07:24:47.086Z,40.14
2018-12-04T07:25:47.078Z,40.14
2018-12-04T07:26:47.069Z,39.76
2018-12-04T07:27:47.063Z,40.23
2018-12-04T07:28:47.056Z,39.95
2018-12-04T07:29:47.051Z,39.57
2018-12-04T07:30:47.046Z,39.47
2018-12-04T07:31:47.040Z,39.09
2018-12-04T07:32:47.027Z,39.18
2018-12-04T07:33:47.027Z,39.28
2018-12-04T07:34:47.012Z,39.18
2018-12-04T07:35:47.008Z,39.37
2018-12-04T07:36:46.998Z,39.66
2018-12-04T07:37:46.991Z,39.09
2018-12-04T07:38:46.983Z,38.90
2018-12-04T07:39:46.978Z,38.90
2018-12-04T07:40:46.968Z,38.53
2018-12-04T07:41:46.961Z,38.43
2018-12-04T07:42:46.961Z,38.14
2018-12-04T07:43:46.946Z,38.05
2018-12-04T07:44:46.940Z,38.05
2018-12-04T07:45:46.932Z,37.57
2018-12-04T07:46:46.923Z,37.29
2018-12-04T07:47:46.917Z,37.48
2018-12-04T07:48:46.910Z,37.48
2018-12-04T07:49:46.903Z,37.67
2018-12-04T07:50:46.896Z,37.67
2018-12-04T07:51:46.888Z,37.55
2018-12-04T07:52:46.880Z,37.55
2018-12-04T07:53:46.875Z,37.74
2018-12-04T07:54:46.867Z,37.46
2018-12-04T07:55:46.857Z,37.18
2018-12-04T07:56:46.851Z,37.08
2018-12-04T07:57:46.842Z,37.27
2018-12-04T07:58:46.834Z,36.63
2018-12-04T07:59:46.827Z,36.53
2018-12-04T08:00:46.822Z,37.10
2018-12-04T08:01:46.814Z,36.91
2018-12-04T08:02:46.804Z,37.18
2018-12-04T08:03:46.799Z,37.27
2018-12-04T08:04:46.792Z,36.91
2018-12-04T08:05:46.784Z,36.53
2018-12-04T08:06:46.776Z,36.72
2018-12-04T08:07:46.767Z,36.91
2018-12-04T08:08:46.762Z,37.19
2018-12-04T08:09:46.754Z,37.48
2018-12-04T08:10:46.747Z,37.38
2018-12-04T08:11:46.740Z,37.95
2018-12-04T08:12:46.732Z,37.67
2018-12-04T08:13:46.724Z,38.24
2018-12-04T08:14:46.718Z,38.24
2018-12-04T08:15:46.717Z,38.62
2018-12-04T08:16:46.702Z,38.71
2018-12-04T08:17:46.699Z,39.18
2018-12-04T08:18:46.687Z,39.09
2018-12-04T08:19:46.680Z,39.00
2018-12-04T08:20:46.673Z,39.47
2018-12-04T08:21:46.666Z,39.66
2018-12-04T08:22:46.660Z,39.85
2018-12-04T08:23:46.651Z,39.76
2018-12-04T08:24:46.644Z,39.47
2018-12-04T08:25:46.640Z,39.95
2018-12-04T08:26:46.627Z,40.33
2018-12-04T08:27:46.622Z,40.23
2018-12-04T08:28:46.614Z,40.33
2018-12-04T08:29:46.607Z,41.08
2018-12-04T08:30:46.598Z,41.66
2018-12-04T08:31:46.591Z,42.60
2018-12-04T08:32:46.585Z,43.27
2018-12-04T08:33:46.577Z,43.08
2018-12-04T08:34:46.569Z,42.32
2018-12-04T08:35:46.563Z,43.46
2018-12-04T08:36:46.555Z,43.36
2018-12-04T08:37:46.548Z,43.36
2018-12-04T08:38:46.541Z,43.27
2018-12-04T08:39:46.533Z,43.55
2018-12-04T08:40:46.525Z,43.74
2018-12-04T08:41:46.518Z,43.36
2018-12-04T08:42:46.513Z,43.74
2018-12-04T08:43:46.511Z,43.36
2018-12-04T08:44:46.499Z,43.36
2018-12-04T08:45:46.491Z,43.86
2018-12-04T08:46:46.482Z,44.79
2018-12-04T08:47:46.476Z,44.79
2018-12-04T08:48:46.469Z,44.98
2018-12-04T08:49:46.462Z,45.26
2018-12-04T08:50:46.454Z,44.50
2018-12-04T08:51:46.447Z,43.93
2018-12-04T08:52:46.442Z,43.95
2018-12-04T08:53:46.432Z,44.62
2018-12-04T08:54:46.425Z,44.90
2018-12-04T08:55:46.419Z,44.53
2018-12-04T08:56:46.416Z,44.24
2018-12-04T08:57:46.404Z,45.00
2018-12-04T08:58:46.397Z,44.90
2018-12-04T08:59:46.391Z,45.47
2018-12-04T09:00:46.383Z,45.85
2018-12-04T09:01:46.376Z,46.04
2018-12-04T09:02:46.370Z,46.14
2018-12-04T09:03:46.359Z,45.85
2018-12-04T09:04:46.354Z,45.85
2018-12-04T09:05:46.345Z,45.85
2018-12-04T09:06:46.366Z,45.76
2018-12-04T09:07:46.332Z,46.33
2018-12-04T09:08:46.342Z,45.85
2018-12-04T09:09:46.320Z,45.95
2018-12-04T09:10:46.312Z,46.04
2018-12-04T09:11:46.305Z,46.90
2018-12-04T09:12:46.297Z,47.09
2018-12-04T09:13:46.290Z,46.80
2018-12-04T09:14:46.284Z,47.28
2018-12-04T09:15:46.275Z,47.47
2018-12-04T09:16:46.797Z,47.09
2018-12-04T09:17:46.262Z,47.47
2018-12-04T09:18:46.296Z,48.44
2018-12-04T09:19:46.281Z,47.39
2018-12-04T09:20:46.262Z,48.91
2018-12-04T09:21:46.264Z,49.77
2018-12-04T09:22:46.274Z,50.62
2018-12-04T09:23:46.222Z,50.05
2018-12-04T09:24:46.265Z,51.48
2018-12-04T09:25:46.206Z,52.43
2018-12-04T09:26:46.197Z,51.01
2018-12-04T09:27:46.239Z,55.18
2018-12-04T09:28:46.185Z,57.37
2018-12-04T09:29:46.184Z,56.51
2018-12-04T09:30:46.170Z,56.13
2018-12-04T09:31:46.166Z,57.09
2018-12-04T09:32:46.156Z,56.89
2018-12-04T09:33:46.151Z,58.03
2018-12-04T09:34:46.143Z,59.77
2018-12-04T09:35:46.135Z,59.58
2018-12-04T09:36:46.129Z,60.88
2018-12-04T09:37:46.124Z,61.48
2018-12-04T09:38:46.115Z,59.96
2018-12-04T09:39:46.109Z,60.53
2018-12-04T09:40:46.104Z,59.84
2018-12-04T09:41:46.097Z,59.39
2018-12-04T09:42:46.091Z,59.11
2018-12-04T09:43:46.085Z,59.58
2018-12-04T09:44:46.077Z,60.53
2018-12-04T09:45:46.070Z,61.29
2018-12-04T09:46:46.063Z,63.29
2018-12-04T09:47:46.057Z,65.57
2018-12-04T09:48:46.051Z,67.32
2018-12-04T09:49:46.044Z,67.41
2018-12-04T09:50:46.037Z,66.42
2018-12-04T09:51:46.030Z,65.09
2018-12-04T09:52:46.024Z,66.65
2018-12-04T09:53:51.801Z,68.55
2018-12-04T09:54:46.014Z,70.45
2018-12-04T09:55:46.004Z,70.74
2018-12-04T09:56:45.997Z,69.18
2018-12-04T09:57:45.993Z,67.66
2018-12-04T09:58:45.988Z,65.19
2018-12-04T09:59:45.979Z,66.33
2018-12-04T10:00:45.972Z,66.24
2018-12-04T10:01:45.968Z,65.76
2018-12-04T10:02:45.960Z,64.81
2018-12-04T10:03:45.953Z,65.00
2018-12-04T10:04:45.948Z,64.90
2018-12-04T10:05:45.941Z,66.05
2018-12-04T10:06:45.933Z,64.81
2018-12-04T10:07:45.928Z,64.90
2018-12-04T10:08:45.922Z,66.42
2018-12-04T10:09:45.917Z,65.76
2018-12-04T10:10:45.912Z,65.76
2018-12-04T10:11:45.904Z,65.76
2018-12-04T10:12:45.917Z,67.47
2018-12-04T10:13:45.893Z,68.74
2018-12-04T10:14:45.889Z,71.12
2018-12-04T10:15:45.878Z,71.78
2018-12-04T10:16:45.873Z,72.55
2018-12-04T10:17:45.867Z,73.78
2018-12-04T10:18:47.808Z,72.45
2018-12-04T10:19:45.853Z,72.07
2018-12-04T10:20:45.846Z,72.26
2018-12-04T10:21:45.839Z,70.74
2018-12-04T10:22:45.833Z,73.21
2018-12-04T10:23:45.827Z,73.69
2018-12-04T10:24:45.821Z,73.53
2018-12-04T10:25:45.816Z,73.91
2018-12-04T10:26:45.807Z,74.20
2018-12-04T10:27:45.801Z,73.69
2018-12-04T10:28:45.795Z,70.64
2018-12-04T10:29:45.789Z,71.88
2018-12-04T10:30:45.784Z,72.07
2018-12-04T10:31:45.776Z,72.07
2018-12-04T10:32:45.770Z,71.97
2018-12-04T10:33:45.765Z,75.02
2018-12-04T10:34:45.757Z,74.01
2018-12-04T10:35:45.753Z,74.87
2018-12-04T10:36:45.751Z,78.61
2018-12-04T10:37:45.742Z,80.61
2018-12-04T10:38:45.734Z,82.60
2018-12-04T10:39:45.729Z,87.31
2018-12-04T10:40:45.725Z,87.55
2018-12-04T10:41:45.720Z,86.03
2018-12-04T10:42:45.715Z,84.84
2018-12-04T10:43:45.710Z,86.32
2018-12-04T10:44:45.705Z,86.12
2018-12-04T10:45:45.701Z,87.16
2018-12-04T10:46:45.694Z,87.50
2018-12-04T10:47:45.691Z,86.21
2018-12-04T10:48:45.687Z,88.02
2018-12-04T10:49:45.683Z,87.83
2018-12-04T10:50:45.678Z,87.26
2018-12-04T10:51:45.675Z,86.49
2018-12-04T10:52:45.669Z,86.92
2018-12-04T10:53:45.667Z,87.26
2018-12-04T10:54:45.661Z,87.83
2018-12-04T10:55:45.659Z,86.98
2018-12-04T10:56:45.655Z,87.64
2018-12-04T10:57:45.652Z,87.07
2018-12-04T10:58:45.649Z,87.07
2018-12-04T10:59:45.645Z,86.88
2018-12-04T11:00:45.642Z,87.31
2018-12-04T11:01:45.641Z,86.16
2018-12-04T11:02:45.635Z,86.93
2018-12-04T11:03:45.635Z,86.41
2018-12-04T11:04:45.630Z,85.08
2018-12-04T11:05:45.627Z,87.31
2018-12-04T11:06:45.623Z,87.12
2018-12-04T11:07:45.620Z,87.17
2018-12-04T11:08:45.619Z,86.32
2018-12-04T11:09:45.615Z,86.88
2018-12-04T11:10:45.611Z,86.60
2018-12-04T11:11:45.608Z,85.84
2018-12-04T11:12:45.608Z,85.27
2018-12-04T11:13:45.604Z,84.41
2018-12-04T11:14:45.598Z,83.07
2018-12-04T11:15:45.596Z,86.88
2018-12-04T11:16:45.591Z,87.27
2018-12-04T11:17:45.588Z,86.60
2018-12-04T11:18:45.583Z,86.03
2018-12-04T11:19:45.594Z,86.12
2018-12-04T11:20:45.580Z,86.46
2018-12-04T11:21:45.574Z,86.03
2018-12-04T11:22:45.573Z,85.55
2018-12-04T11:23:45.567Z,86.32
2018-12-04T11:24:45.565Z,84.65
2018-12-04T11:25:45.562Z,83.03
2018-12-04T11:26:45.556Z,80.71
2018-12-04T11:27:45.553Z,80.23
2018-12-04T11:28:45.550Z,83.18
2018-12-04T11:29:45.548Z,82.99
2018-12-04T11:30:45.543Z,81.76
2018-12-04T11:31:45.539Z,83.85
2018-12-04T11:32:45.534Z,84.52
2018-12-04T11:33:45.532Z,85.51
2018-12-04T11:34:45.535Z,85.28
2018-12-04T11:35:45.525Z,85.18
2018-12-04T11:36:45.521Z,83.98
2018-12-04T11:37:45.519Z,84.04
2018-12-04T11:38:45.511Z,83.65
2018-12-04T11:39:45.507Z,84.08
2018-12-04T11:40:45.503Z,84.84
2018-12-04T11:41:45.500Z,86.51
2018-12-04T11:42:45.497Z,87.17
2018-12-04T11:43:45.491Z,86.51
2018-12-04T11:44:45.488Z,85.41
2018-12-04T11:45:45.484Z,85.60
2018-12-04T11:46:45.476Z,83.37
2018-12-04T11:47:45.473Z,81.85
2018-12-04T11:48:45.473Z,81.37
2018-12-04T11:49:45.465Z,84.13
2018-12-04T11:50:45.460Z,83.09
2018-12-04T11:51:45.455Z,85.47
2018-12-04T11:52:45.450Z,84.42
2018-12-04T11:53:45.446Z,85.18
2018-12-04T11:54:45.444Z,83.37
2018-12-04T11:55:45.438Z,83.75
2018-12-04T11:56:45.436Z,82.99
2018-12-04T11:57:45.429Z,82.99
2018-12-04T11:58:45.424Z,82.70
2018-12-04T11:59:45.419Z,82.86
2018-12-04T12:00:45.414Z,81.90
2018-12-04T12:01:45.409Z,84.38
2018-12-04T12:02:45.403Z,82.95
2018-12-04T12:03:45.400Z,83.23
2018-12-04T12:04:45.395Z,83.14
2018-12-04T12:05:45.392Z,83.52
2018-12-04T12:06:45.387Z,82.09
2018-12-04T12:07:45.380Z,84.38
2018-12-04T12:08:45.374Z,82.95
2018-12-04T12:09:45.370Z,83.23
2018-12-04T12:10:45.364Z,84.09
2018-12-04T12:11:45.360Z,84.66
2018-12-04T12:12:45.354Z,83.23
2018-12-04T12:13:45.350Z,84.00
2018-12-04T12:14:45.343Z,84.09
2018-12-04T12:15:45.339Z,83.14
2018-12-04T12:16:45.337Z,83.90
2018-12-04T12:17:45.329Z,82.76
2018-12-04T12:18:45.327Z,82.57
2018-12-04T12:19:45.318Z,85.04
2018-12-04T12:20:45.314Z,84.66
2018-12-04T12:21:45.308Z,84.66
2018-12-04T12:22:45.302Z,83.33
2018-12-04T12:23:45.296Z,84.76
2018-12-04T12:24:45.293Z,85.14
2018-12-04T12:25:45.286Z,84.76
2018-12-04T12:26:45.280Z,85.80
2018-12-04T12:27:45.276Z,85.37
2018-12-04T12:28:45.270Z,85.47
2018-12-04T12:29:45.266Z,84.13
2018-12-04T12:30:45.258Z,85.42
2018-12-04T12:31:45.256Z,84.47
2018-12-04T12:32:45.249Z,85.24
2018-12-04T12:33:45.247Z,85.28
2018-12-04T12:34:45.243Z,85.94
2018-12-04T12:35:45.233Z,85.94
2018-12-04T12:36:45.227Z,85.66
2018-12-04T12:37:45.222Z,86.04
2018-12-04T12:38:45.216Z,86.80
2018-12-04T12:39:45.212Z,86.22
2018-12-04T12:40:45.206Z,84.04
2018-12-04T12:41:45.205Z,84.80
2018-12-04T12:42:45.195Z,85.24
2018-12-04T12:43:45.190Z,83.81
2018-12-04T12:44:45.185Z,84.66
2018-12-04T12:45:45.180Z,85.99
2018-12-04T12:46:45.173Z,85.42
2018-12-04T12:47:45.167Z,85.71
2018-12-04T12:48:45.161Z,85.14
2018-12-04T12:49:45.156Z,85.24
2018-12-04T12:50:45.150Z,83.90
2018-12-04T12:51:45.146Z,84.85
2018-12-04T12:52:45.140Z,85.04